May, Oklahoma
Current Conditions -  °F | °C
As of 11:55 AM on Friday 24 Oct 2014 (Local Time) from KWWR Reporting Station
Clear Clear  
Wind Chill: 75°   Ceiling: Unl
Heat Index: 75°   Visibility: 10mi
Dew Point: 61°   Wind: 8mph
Humidity: 61%   Direction: 240°WSW
Pressure: 30.12"   Gusts: NA
Location:  36.62°N, 99.75°W
Report Text: KWWR 241655Z AUTO 24007KT 10SM CLR 24/16 A3012 RMK AO2
Loading
Personal Weather Stations






























Interactive Weather Map
Tropical Storm Tracking
New forecast layout! Learn more

10-Day Weather Forecast

Advertisements
Track Severe Weather on mobile